Details for Wideroe at ENTO




Go Back


Latest METAR
Local Time

ENTO 160920Z 18018KT 7000 -SHRA FEW008 OVC010 17/17 Q1010
16/08/2018, 11:47:43

Description
Results
Wideroe Logo
Number of Pilots based at ENTO
0 Pilots Based here
Number of Wideroe Flights Departed from ENTO
1 Flights Departed
Number of Wideroe Flights Arrived at ENTO
0 Flights Arrived
Number of Wideroe Schedules Departing from ENTO
19 Schedules
Number of Wideroe Schedules Arriving at ENTO
18 Schedules
Number of Wideroe Schedules Departing from ENTO availible today
16 Schedules Today
Number of Wideroe Schedules Arriving at ENTO availible today
16 Schedules Today
Average Landing Rate at ENTO
-132 fpm
Wideroe Average Landing Rate at ENTO
0 fpm
Total Fuel Purchased at ENTO by Wideroe
979.76 kgs / 2,159.98 lbs

Pilots Based at ENTO


Pilot ID
Pilot Name
Pilot Rank
No. of Flights
No. of Flying Hours
There are no pilots assigned to this hub!   Will you be the first?
Content